createdAt,value
2022-10-23T00:00:05.804Z,101329.00
2022-10-23T00:02:32.211Z,101341.44
2022-10-23T00:04:58.502Z,101338.88
2022-10-23T00:07:24.800Z,101342.41
2022-10-23T00:09:51.815Z,101343.34
2022-10-23T00:12:18.083Z,101345.16
2022-10-23T00:14:44.323Z,101338.09
2022-10-23T00:17:12.228Z,101343.44
2022-10-23T00:19:38.487Z,101347.88
2022-10-23T00:22:04.742Z,101354.03
2022-10-23T00:24:30.992Z,101354.88
2022-10-23T00:26:57.267Z,101357.53
2022-10-23T00:29:24.174Z,101361.94
2022-10-23T00:31:50.439Z,101363.66
2022-10-23T00:34:16.738Z,101364.53
2022-10-23T00:36:42.975Z,101365.41
2022-10-23T00:39:09.252Z,101361.81
2022-10-23T00:41:35.543Z,101361.81
2022-10-23T00:44:01.813Z,101368.84
2022-10-23T00:46:28.095Z,101360.91
2022-10-23T00:48:54.539Z,101363.50
2022-10-23T00:51:21.318Z,101363.50
2022-10-23T00:53:56.691Z,101370.53
2022-10-23T00:56:35.713Z,101366.94
2022-10-23T00:59:01.957Z,101364.28
2022-10-23T01:01:28.406Z,101373.91
2022-10-23T01:03:54.923Z,101371.28
2022-10-23T01:06:24.265Z,101368.66
2022-10-23T01:08:54.270Z,101365.97
2022-10-23T01:11:24.823Z,101368.59
2022-10-23T01:14:00.943Z,101374.75
2022-10-23T01:16:31.079Z,101367.69
2022-10-23T01:18:57.296Z,101371.13
2022-10-23T01:21:30.225Z,101370.28
2022-10-23T01:24:02.717Z,101364.94
2022-10-23T01:26:58.350Z,101363.13
2022-10-23T01:29:29.527Z,101364.88
2022-10-23T01:32:13.860Z,101367.50
2022-10-23T01:34:51.768Z,101372.78
2022-10-23T01:37:23.449Z,101370.09
2022-10-23T01:39:52.207Z,101362.16
2022-10-23T01:42:28.707Z,101362.13
2022-10-23T01:44:59.407Z,101360.34
2022-10-23T01:47:27.498Z,101359.44
2022-10-23T01:49:55.669Z,101364.63
2022-10-23T01:52:22.400Z,101354.94
2022-10-23T01:54:49.901Z,101361.09
2022-10-23T01:57:17.924Z,101363.69
2022-10-23T01:59:46.871Z,101357.44
2022-10-23T02:02:13.793Z,101356.56
2022-10-23T02:04:41.911Z,101349.47
2022-10-23T02:07:08.816Z,101356.47
2022-10-23T02:09:35.085Z,101363.50
2022-10-23T02:12:14.053Z,101361.66
2022-10-23T02:14:43.070Z,101358.06
2022-10-23T02:17:16.471Z,101352.78
2022-10-23T02:19:42.703Z,101356.31
2022-10-23T02:22:14.259Z,101352.84
2022-10-23T02:24:54.227Z,101354.56
2022-10-23T02:27:25.460Z,101351.94
2022-10-23T02:29:53.618Z,101351.91
2022-10-23T02:32:21.726Z,101355.44
2022-10-23T02:34:48.082Z,101344.00
2022-10-23T02:37:14.518Z,101339.59
2022-10-23T02:39:41.229Z,101344.84
2022-10-23T02:42:13.605Z,101344.78
2022-10-23T02:44:46.703Z,101350.97
2022-10-23T02:47:35.166Z,101354.47
2022-10-23T02:50:01.384Z,101356.09
2022-10-23T02:52:33.087Z,101350.69
2022-10-23T02:55:05.885Z,101349.72
2022-10-23T02:57:50.727Z,101350.44
2022-10-23T03:00:18.923Z,101353.84
2022-10-23T03:02:48.343Z,101351.13
2022-10-23T03:05:18.233Z,101343.25
2022-10-23T03:07:44.883Z,101345.81
2022-10-23T03:10:11.248Z,101348.34
2022-10-23T03:12:37.691Z,101357.09
2022-10-23T03:15:04.390Z,101345.69
2022-10-23T03:17:30.692Z,101348.25
2022-10-23T03:19:56.956Z,101355.25
2022-10-23T03:22:23.359Z,101346.38
2022-10-23T03:24:49.733Z,101342.81
2022-10-23T03:27:16.341Z,101353.25
2022-10-23T03:29:42.776Z,101352.31
2022-10-23T03:32:09.128Z,101350.63
2022-10-23T03:34:35.380Z,101344.59
2022-10-23T03:37:01.644Z,101358.75
2022-10-23T03:39:27.973Z,101354.47
2022-10-23T03:41:54.229Z,101352.88
2022-10-23T03:44:20.473Z,101350.41
2022-10-23T03:46:46.853Z,101346.13
2022-10-23T03:49:13.103Z,101344.56
2022-10-23T03:51:41.676Z,101348.16
2022-10-23T03:54:08.364Z,101347.31
2022-10-23T03:56:34.636Z,101344.72
2022-10-23T03:59:00.984Z,101350.94
2022-10-23T04:01:27.419Z,101355.44
2022-10-23T04:03:53.730Z,101364.28
2022-10-23T04:06:20.008Z,101366.16
2022-10-23T04:08:46.328Z,101357.38
2022-10-23T04:11:12.586Z,101359.13
2022-10-23T04:13:38.870Z,101352.09
2022-10-23T04:16:05.185Z,101358.28
2022-10-23T04:18:31.460Z,101359.19
2022-10-23T04:20:57.778Z,101364.47
2022-10-23T04:23:24.104Z,101365.34
2022-10-23T04:25:50.354Z,101368.84
2022-10-23T04:28:16.647Z,101368.84
2022-10-23T04:30:42.911Z,101362.69
2022-10-23T04:33:09.175Z,101361.84
2022-10-23T04:35:35.419Z,101359.25
2022-10-23T04:38:01.642Z,101358.38
2022-10-23T04:40:27.890Z,101361.84
2022-10-23T04:42:54.167Z,101358.34
2022-10-23T04:45:20.454Z,101357.44
2022-10-23T04:47:46.738Z,101360.97
2022-10-23T04:50:13.040Z,101352.16
2022-10-23T04:52:39.540Z,101347.78
2022-10-23T04:55:07.179Z,101356.59
2022-10-23T04:57:33.625Z,101349.53
2022-10-23T04:59:59.886Z,101353.09
2022-10-23T05:02:27.607Z,101346.88
2022-10-23T05:04:54.771Z,101350.38
2022-10-23T05:09:48.309Z,101353.03
2022-10-23T05:12:14.842Z,101350.41
2022-10-23T05:14:41.110Z,101345.13
2022-10-23T05:17:09.969Z,101343.34
2022-10-23T05:19:40.300Z,101341.56
2022-10-23T05:22:06.715Z,101347.72
2022-10-23T05:24:32.989Z,101352.16
2022-10-23T05:26:59.228Z,101338.06
2022-10-23T05:29:25.469Z,101331.88
2022-10-23T05:31:54.351Z,101324.88
2022-10-23T05:34:22.237Z,101328.38
2022-10-23T05:36:48.751Z,101332.81
2022-10-23T05:39:15.357Z,101339.00
2022-10-23T05:41:41.635Z,101331.06
2022-10-23T05:44:07.882Z,101336.38
2022-10-23T05:46:34.226Z,101332.84
2022-10-23T05:49:00.479Z,101337.25
2022-10-23T05:51:26.734Z,101339.00
2022-10-23T05:53:54.903Z,101345.19
2022-10-23T05:56:21.168Z,101339.94
2022-10-23T05:58:47.434Z,101335.53
2022-10-23T06:01:14.300Z,101345.22
2022-10-23T06:03:40.771Z,101342.59
2022-10-23T06:06:07.552Z,101339.09
2022-10-23T06:08:34.322Z,101331.22
2022-10-23T06:11:07.916Z,101337.34
2022-10-23T06:13:34.186Z,101339.09
2022-10-23T06:16:08.725Z,101335.56
2022-10-23T06:18:36.238Z,101339.03
2022-10-23T06:21:02.535Z,101339.91
2022-10-23T06:23:30.242Z,101337.28
2022-10-23T06:25:56.820Z,101336.44
2022-10-23T06:28:23.114Z,101339.06
2022-10-23T06:30:49.365Z,101342.56
2022-10-23T06:33:15.599Z,101338.25
2022-10-23T06:35:41.887Z,101347.03
2022-10-23T06:38:09.328Z,101347.94
2022-10-23T06:40:35.692Z,101350.56
2022-10-23T06:43:01.992Z,101351.44
2022-10-23T06:45:30.064Z,101356.72
2022-10-23T06:47:56.296Z,101354.94
2022-10-23T06:50:22.605Z,101365.50
2022-10-23T06:52:48.860Z,101368.97
2022-10-23T06:55:15.155Z,101363.69
2022-10-23T06:57:42.069Z,101364.59
2022-10-23T07:00:08.930Z,101369.88
2022-10-23T07:02:35.452Z,101369.88
2022-10-23T07:05:01.773Z,101370.78
2022-10-23T07:07:31.380Z,101364.63
2022-10-23T07:09:57.649Z,101362.84
2022-10-23T07:12:23.968Z,101363.75
2022-10-23T07:14:50.467Z,101361.16
2022-10-23T07:17:16.774Z,101349.69
2022-10-23T07:19:43.029Z,101359.41
2022-10-23T07:22:10.840Z,101361.19
2022-10-23T07:24:40.196Z,101358.56
2022-10-23T07:27:06.817Z,101357.75
2022-10-23T07:29:33.172Z,101359.56
2022-10-23T07:32:02.705Z,101356.09
2022-10-23T07:34:28.961Z,101361.38
2022-10-23T07:36:56.781Z,101350.84
2022-10-23T07:39:24.103Z,101361.38
2022-10-23T07:41:50.430Z,101364.94
2022-10-23T07:44:16.769Z,101372.88
2022-10-23T07:46:43.027Z,101360.63
2022-10-23T07:49:10.090Z,101364.13
2022-10-23T07:51:36.525Z,101360.63
2022-10-23T07:54:02.809Z,101350.09
2022-10-23T07:56:29.906Z,101365.06
2022-10-23T07:58:56.867Z,101358.00
2022-10-23T08:01:29.973Z,101344.78
2022-10-23T08:03:56.641Z,101348.34
2022-10-23T08:06:23.127Z,101340.50
2022-10-23T08:08:49.579Z,101348.47
2022-10-23T08:11:17.585Z,101339.69
2022-10-23T08:13:44.242Z,101349.44
2022-10-23T08:16:10.794Z,101346.84
2022-10-23T08:18:37.524Z,101363.59
2022-10-23T08:21:04.820Z,101369.75
2022-10-23T08:23:31.321Z,101358.31
2022-10-23T08:26:01.336Z,101361.84
2022-10-23T08:28:28.746Z,101362.81
2022-10-23T08:30:55.085Z,101361.09
2022-10-23T08:33:22.364Z,101360.28
2022-10-23T08:35:49.328Z,101351.50
2022-10-23T08:38:16.464Z,101348.84
2022-10-23T08:40:47.679Z,101353.22
2022-10-23T08:43:20.257Z,101340.88
2022-10-23T08:45:49.663Z,101347.94
2022-10-23T08:48:21.392Z,101346.22
2022-10-23T08:50:50.862Z,101351.56
2022-10-23T08:53:40.173Z,101363.09
2022-10-23T08:56:14.346Z,101369.31
2022-10-23T08:58:46.414Z,101361.38
2022-10-23T09:01:36.108Z,101364.94
2022-10-23T09:04:03.639Z,101364.94
2022-10-23T09:06:41.792Z,101363.16
2022-10-23T09:09:15.156Z,101359.66
2022-10-23T09:11:49.916Z,101350.84
2022-10-23T09:14:16.222Z,101351.75
2022-10-23T09:16:42.506Z,101350.84
2022-10-23T09:19:14.634Z,101342.91
2022-10-23T09:21:41.220Z,101347.31
2022-10-23T09:24:13.953Z,101349.97
2022-10-23T09:26:42.556Z,101355.28
2022-10-23T09:29:21.225Z,101338.47
2022-10-23T09:31:48.459Z,101342.03
2022-10-23T09:34:23.449Z,101344.66
2022-10-23T09:39:24.108Z,101334.03
2022-10-23T09:41:52.299Z,101331.41
2022-10-23T09:44:30.632Z,101328.72
2022-10-23T09:47:01.136Z,101331.38
2022-10-23T09:49:32.050Z,101330.50
2022-10-23T09:52:19.848Z,101322.53
2022-10-23T09:54:50.712Z,101332.28
2022-10-23T09:57:16.922Z,101330.50
2022-10-23T09:59:43.632Z,101332.28
2022-10-23T10:02:20.540Z,101328.72
2022-10-23T10:04:46.840Z,101333.13
2022-10-23T10:07:23.796Z,101341.09
2022-10-23T10:09:50.659Z,101327.81
2022-10-23T10:12:20.245Z,101335.78
2022-10-23T10:15:02.768Z,101328.69
2022-10-23T10:17:33.823Z,101330.47
2022-10-23T10:20:21.727Z,101322.47
2022-10-23T10:22:58.796Z,101333.09
2022-10-23T10:25:33.259Z,101320.72
2022-10-23T10:28:07.298Z,101319.84
2022-10-23T10:30:53.828Z,101318.03
2022-10-23T10:33:30.980Z,101310.91
2022-10-23T10:36:13.188Z,101309.97
2022-10-23T10:38:50.702Z,101296.63
2022-10-23T10:41:24.950Z,101301.94
2022-10-23T10:43:54.156Z,101289.50
2022-10-23T10:46:24.544Z,101290.31
2022-10-23T10:49:01.805Z,101287.66
2022-10-23T10:51:34.314Z,101278.72
2022-10-23T10:54:03.720Z,101279.69
2022-10-23T10:56:31.472Z,101282.38
2022-10-23T10:59:17.358Z,101275.38
2022-10-23T11:01:49.785Z,101265.69
2022-10-23T11:04:28.958Z,101265.66
2022-10-23T11:06:56.546Z,101258.53
2022-10-23T11:09:27.559Z,101262.91
2022-10-23T11:11:54.148Z,101253.06
2022-10-23T11:14:25.116Z,101246.63
2022-10-23T11:16:52.742Z,101244.59
2022-10-23T11:19:28.308Z,101238.00
2022-10-23T11:22:04.706Z,101233.47
2022-10-23T11:24:50.757Z,101228.09
2022-10-23T11:27:18.630Z,101224.50
2022-10-23T11:30:03.440Z,101218.16
2022-10-23T11:32:41.421Z,101211.75
2022-10-23T11:35:17.700Z,101206.44
2022-10-23T11:37:44.325Z,101205.53
2022-10-23T11:40:10.711Z,101201.09
2022-10-23T11:42:39.724Z,101193.03
2022-10-23T11:45:24.920Z,101185.13
2022-10-23T11:47:59.071Z,101180.59
2022-10-23T11:50:45.265Z,101175.09
2022-10-23T11:53:25.437Z,101179.53
2022-10-23T11:55:57.689Z,101178.75
2022-10-23T11:58:31.969Z,101177.81
2022-10-23T12:01:04.512Z,101171.53
2022-10-23T12:03:39.623Z,101172.34
2022-10-23T12:06:06.346Z,101157.19
2022-10-23T12:08:34.852Z,101153.38
2022-10-23T12:11:01.128Z,101139.75
2022-10-23T12:13:29.735Z,101141.91
2022-10-23T12:15:58.591Z,101132.88
2022-10-23T12:18:27.509Z,101121.19
2022-10-23T12:20:58.417Z,101117.28
2022-10-23T12:23:42.116Z,101110.94
2022-10-23T12:26:13.845Z,101112.53
2022-10-23T12:28:46.070Z,101112.88
2022-10-23T12:31:15.426Z,101107.59
2022-10-23T12:33:54.567Z,101111.59
2022-10-23T12:36:41.133Z,101101.75
2022-10-23T12:39:26.168Z,101103.28
2022-10-23T12:41:52.504Z,101095.34
2022-10-23T12:44:18.767Z,101096.09
2022-10-23T12:46:48.981Z,101088.59
2022-10-23T12:49:19.672Z,101083.06
2022-10-23T12:51:53.789Z,101080.13
2022-10-23T12:54:21.013Z,101076.13
2022-10-23T12:56:47.813Z,101070.91
2022-10-23T12:59:18.445Z,101071.31
2022-10-23T13:01:47.968Z,101066.19
2022-10-23T13:04:22.094Z,101061.00
2022-10-23T13:06:49.521Z,101062.50
2022-10-23T13:09:23.584Z,101053.00
2022-10-23T13:11:51.240Z,101049.81
2022-10-23T13:14:28.501Z,101048.09
2022-10-23T13:17:01.767Z,101051.06
2022-10-23T13:19:28.014Z,101040.59
2022-10-23T13:21:54.420Z,101042.44
2022-10-23T13:24:21.859Z,101030.00
2022-10-23T13:26:48.989Z,101022.19
2022-10-23T13:29:29.881Z,101016.09
2022-10-23T13:32:00.715Z,101006.59
2022-10-23T13:34:28.178Z,100997.06
2022-10-23T13:36:56.968Z,100995.38
2022-10-23T13:39:28.233Z,101006.34
2022-10-23T13:41:54.539Z,100995.88
2022-10-23T13:44:22.564Z,101000.59
2022-10-23T13:46:49.086Z,100998.88
2022-10-23T13:49:15.999Z,100989.25
2022-10-23T13:51:44.539Z,100981.41
2022-10-23T13:54:13.705Z,100977.94
2022-10-23T13:56:40.227Z,100977.13
2022-10-23T13:59:06.486Z,100978.97
2022-10-23T14:01:35.296Z,100971.00
2022-10-23T14:04:03.884Z,100958.78
2022-10-23T14:06:31.101Z,100949.25
2022-10-23T14:08:57.647Z,100954.72
2022-10-23T14:11:24.284Z,100961.06
2022-10-23T14:13:51.242Z,100967.38
2022-10-23T14:16:18.286Z,100962.09
2022-10-23T14:18:44.550Z,100955.97
2022-10-23T14:21:12.017Z,100948.97
2022-10-23T14:23:38.258Z,100944.59
2022-10-23T14:26:09.169Z,100933.19
2022-10-23T14:28:35.786Z,100927.00
2022-10-23T14:31:06.480Z,100942.16
2022-10-23T14:33:32.945Z,100938.72
2022-10-23T14:35:59.530Z,100932.59
2022-10-23T14:38:25.976Z,100937.94
2022-10-23T14:40:52.236Z,100930.91
2022-10-23T14:43:18.519Z,100933.63
2022-10-23T14:45:44.802Z,100938.09
2022-10-23T14:48:11.070Z,100934.56
2022-10-23T14:50:42.267Z,100943.47
2022-10-23T14:53:08.513Z,100932.00
2022-10-23T14:55:34.788Z,100930.22
2022-10-23T14:58:01.106Z,100925.81
2022-10-23T15:00:27.512Z,100917.00
2022-10-23T15:02:53.754Z,100907.31
2022-10-23T15:05:20.056Z,100903.75
2022-10-23T15:07:46.350Z,100895.88
2022-10-23T15:10:12.675Z,100893.28
2022-10-23T15:12:39.376Z,100894.22
2022-10-23T15:15:06.473Z,100893.41
2022-10-23T15:17:33.974Z,100883.72
2022-10-23T15:20:00.800Z,100887.28
2022-10-23T15:22:27.405Z,100882.03
2022-10-23T15:24:53.772Z,100890.03
2022-10-23T15:27:20.079Z,100876.75
2022-10-23T15:29:46.452Z,100880.34
2022-10-23T15:32:12.809Z,100883.06
2022-10-23T15:34:42.601Z,100889.28
2022-10-23T15:37:09.853Z,100884.91
2022-10-23T15:39:36.103Z,100876.13
2022-10-23T15:42:04.172Z,100869.16
2022-10-23T15:44:32.118Z,100869.22
2022-10-23T15:46:58.491Z,100864.81
2022-10-23T15:49:25.312Z,100866.66
2022-10-23T15:51:51.882Z,100868.44
2022-10-23T15:54:19.386Z,100871.09
2022-10-23T15:56:47.615Z,100875.53
2022-10-23T15:59:14.124Z,100876.41
2022-10-23T16:01:40.578Z,100864.03
2022-10-23T16:04:07.050Z,100863.13
2022-10-23T16:06:33.460Z,100867.59
2022-10-23T16:08:59.785Z,100876.41
2022-10-23T16:11:28.819Z,100880.00
2022-10-23T16:13:55.963Z,100886.22
2022-10-23T16:16:22.319Z,100884.50
2022-10-23T16:18:48.686Z,100881.91
2022-10-23T16:21:19.428Z,100874.00
2022-10-23T16:23:46.116Z,100859.91
2022-10-23T16:26:12.534Z,100854.63
2022-10-23T16:28:38.811Z,100850.31
2022-10-23T16:31:09.860Z,100841.56
2022-10-23T16:33:36.203Z,100842.53
2022-10-23T16:36:03.688Z,100828.41
2022-10-23T16:38:29.972Z,100816.97
2022-10-23T16:40:56.363Z,100805.50
2022-10-23T16:43:23.891Z,100793.09
2022-10-23T16:45:59.959Z,100798.44
2022-10-23T16:48:26.213Z,100787.78
2022-10-23T16:50:52.492Z,100785.06
2022-10-23T16:53:18.925Z,100777.97
2022-10-23T16:55:45.186Z,100781.44
2022-10-23T16:58:11.484Z,100775.28
2022-10-23T17:00:37.804Z,100769.97
2022-10-23T17:03:04.862Z,100771.75
2022-10-23T17:05:34.858Z,100778.75
2022-10-23T17:08:01.570Z,100770.75
2022-10-23T17:10:28.093Z,100767.19
2022-10-23T17:12:54.348Z,100769.81
2022-10-23T17:15:20.841Z,100777.72
2022-10-23T17:17:47.164Z,100781.25
2022-10-23T17:20:13.443Z,100790.03
2022-10-23T17:22:39.712Z,100786.47
2022-10-23T17:25:06.574Z,100782.03
2022-10-23T17:27:32.851Z,100780.31
2022-10-23T17:29:59.119Z,100769.72
2022-10-23T17:32:25.389Z,100767.06
2022-10-23T17:34:51.688Z,100749.44
2022-10-23T17:37:17.945Z,100742.41
2022-10-23T17:39:44.224Z,100742.41
2022-10-23T17:42:10.539Z,100745.97
2022-10-23T17:44:36.778Z,100747.69
2022-10-23T17:47:03.482Z,100762.69
2022-10-23T17:49:29.741Z,100747.59
2022-10-23T17:51:56.950Z,100734.31
2022-10-23T17:54:23.619Z,100744.03
2022-10-23T17:56:49.892Z,100737.91
2022-10-23T17:59:18.719Z,100733.50
2022-10-23T18:01:47.818Z,100714.97
2022-10-23T18:04:14.804Z,100709.63
2022-10-23T18:06:45.922Z,100706.19
2022-10-23T18:09:12.773Z,100702.66
2022-10-23T18:11:43.933Z,100708.84
2022-10-23T18:14:13.510Z,100692.06
2022-10-23T18:16:40.664Z,100680.56
2022-10-23T18:19:07.747Z,100685.03
2022-10-23T18:21:35.710Z,100684.16
2022-10-23T18:24:02.315Z,100663.81
2022-10-23T18:26:30.104Z,100662.06
2022-10-23T18:28:58.260Z,100665.63
2022-10-23T18:31:25.763Z,100671.75
2022-10-23T18:33:56.496Z,100657.53
2022-10-23T18:36:24.587Z,100659.28
2022-10-23T18:38:51.227Z,100665.38
2022-10-23T18:41:18.593Z,100666.25
2022-10-23T18:43:44.983Z,100667.13
2022-10-23T18:46:14.479Z,100666.25
2022-10-23T18:48:41.074Z,100668.03
2022-10-23T18:51:15.754Z,100669.81
2022-10-23T18:53:42.526Z,100670.66
2022-10-23T18:56:08.821Z,100667.09
2022-10-23T18:58:35.157Z,100667.06
2022-10-23T19:01:01.490Z,100668.81
2022-10-23T19:03:28.002Z,100671.38
2022-10-23T19:05:54.299Z,100681.97
2022-10-23T19:08:20.668Z,100687.19
2022-10-23T19:10:47.150Z,100688.06
2022-10-23T19:13:13.502Z,100678.34
2022-10-23T19:15:39.828Z,100666.03
2022-10-23T19:18:06.878Z,100653.72
2022-10-23T19:20:33.659Z,100641.44
2022-10-23T19:23:01.290Z,100637.06
2022-10-23T19:25:33.036Z,100625.56
2022-10-23T19:28:00.252Z,100623.81
2022-10-23T19:30:26.846Z,100625.56
2022-10-23T19:32:53.209Z,100604.31
2022-10-23T19:35:20.882Z,100597.28
2022-10-23T19:37:47.373Z,100609.75
2022-10-23T19:40:14.598Z,100623.84
2022-10-23T19:42:41.501Z,100624.72
2022-10-23T19:45:09.704Z,100632.66
2022-10-23T19:47:36.364Z,100636.13
2022-10-23T19:50:03.003Z,100634.25
2022-10-23T19:52:29.663Z,100635.03
2022-10-23T19:54:55.938Z,100635.91
2022-10-23T19:57:22.787Z,100639.38
2022-10-23T19:59:52.733Z,100645.59
2022-10-23T20:02:19.922Z,100628.78
2022-10-23T20:04:46.453Z,100626.16
2022-10-23T20:07:12.818Z,100627.97
2022-10-23T20:09:39.084Z,100620.03
2022-10-23T20:12:05.375Z,100618.28
2022-10-23T20:14:32.105Z,100612.06
2022-10-23T20:16:59.684Z,100606.75
2022-10-23T20:19:25.980Z,100599.69
2022-10-23T20:21:52.318Z,100597.88
2022-10-23T20:24:19.279Z,100603.13
2022-10-23T20:26:47.073Z,100599.59
2022-10-23T20:29:13.778Z,100599.59
2022-10-23T20:31:40.524Z,100605.69
2022-10-23T20:34:07.601Z,100608.28
2022-10-23T20:36:35.000Z,100605.63
2022-10-23T20:39:02.581Z,100611.81
2022-10-23T20:41:29.023Z,100612.66
2022-10-23T20:43:56.067Z,100607.38
2022-10-23T20:46:22.859Z,100601.19
2022-10-23T20:48:49.164Z,100592.31
2022-10-23T20:51:17.660Z,100569.25
2022-10-23T20:53:44.759Z,100578.97
2022-10-23T20:56:15.504Z,100561.31
2022-10-23T20:58:41.747Z,100546.31
2022-10-23T21:01:09.833Z,100545.47
2022-10-23T21:03:36.606Z,100541.94
2022-10-23T21:06:05.929Z,100538.41
2022-10-23T21:08:32.596Z,100539.31
2022-10-23T21:10:59.088Z,100542.84
2022-10-23T21:13:25.348Z,100557.84
2022-10-23T21:15:51.668Z,100557.84
2022-10-23T21:18:26.391Z,100543.66
2022-10-23T21:21:04.581Z,100539.28
2022-10-23T21:23:30.831Z,100532.25
2022-10-23T21:25:57.376Z,100528.75
2022-10-23T21:28:23.623Z,100526.16
2022-10-23T21:30:49.874Z,100524.38
2022-10-23T21:33:16.119Z,100524.38
2022-10-23T21:35:52.269Z,100525.31
2022-10-23T21:38:29.171Z,100518.22
2022-10-23T21:41:04.562Z,100512.03
2022-10-23T21:43:30.996Z,100524.38
2022-10-23T21:45:58.894Z,100523.50
2022-10-23T21:48:25.235Z,100512.75
2022-10-23T21:50:56.499Z,100503.94
2022-10-23T21:53:22.774Z,100500.44
2022-10-23T21:55:49.057Z,100490.78
2022-10-23T21:58:15.309Z,100496.09
2022-10-23T22:00:41.602Z,100518.19
2022-10-23T22:03:07.831Z,100510.16
2022-10-23T22:05:34.059Z,100510.16
2022-10-23T22:08:00.295Z,100504.84
2022-10-23T22:10:26.607Z,100517.28
2022-10-23T22:12:52.865Z,100512.81
2022-10-23T22:15:19.230Z,100509.31
2022-10-23T22:17:45.753Z,100511.06
2022-10-23T22:20:12.327Z,100495.19
2022-10-23T22:22:38.596Z,100482.84
2022-10-23T22:25:05.103Z,100484.66
2022-10-23T22:27:31.422Z,100481.16
2022-10-23T22:29:58.447Z,100483.81
2022-10-23T22:32:24.841Z,100475.88
2022-10-23T22:34:53.325Z,100475.00
2022-10-23T22:37:19.928Z,100467.03
2022-10-23T22:39:46.228Z,100464.38
2022-10-23T22:42:12.541Z,100458.16
2022-10-23T22:44:38.821Z,100459.03
2022-10-23T22:47:05.097Z,100451.97
2022-10-23T22:49:31.347Z,100462.59
2022-10-23T22:51:57.585Z,100460.81
2022-10-23T22:54:23.978Z,100444.91
2022-10-23T22:56:50.309Z,100451.97
2022-10-23T22:59:16.566Z,100446.66
2022-10-23T23:01:44.660Z,100431.69
2022-10-23T23:04:26.067Z,100429.13
2022-10-23T23:06:58.207Z,100432.75
2022-10-23T23:09:24.508Z,100435.41
2022-10-23T23:11:52.577Z,100438.03
2022-10-23T23:14:22.993Z,100444.19
2022-10-23T23:16:51.068Z,100450.38
2022-10-23T23:19:17.405Z,100453.84
2022-10-23T23:21:43.661Z,100459.13
2022-10-23T23:24:10.954Z,100467.97
2022-10-23T23:26:37.206Z,100467.03
2022-10-23T23:29:03.435Z,100467.03
2022-10-23T23:31:29.712Z,100470.63
2022-10-23T23:33:55.991Z,100468.91
2022-10-23T23:36:23.976Z,100452.16
2022-10-23T23:38:50.870Z,100456.63
2022-10-23T23:41:18.336Z,100453.13
2022-10-23T23:43:45.017Z,100453.25
2022-10-23T23:46:11.448Z,100441.78
2022-10-23T23:48:37.998Z,100438.44
2022-10-23T23:51:04.535Z,100439.41
2022-10-23T23:53:30.817Z,100438.56
2022-10-23T23:55:58.032Z,100428.13
2022-10-23T23:58:24.406Z,100435.31
